Time;durP1;ratioP1;P1;durP2;ratioP2;P2;SDS_P1;SDS_P2;PMS_P1;PMS_P2;Temp;Humidity;BMP_temperature;BMP_pressure;BME280_temperature;BME280_humidity;BME280_pressure;Samples;Min_cycle;Max_cycle;Signal;HPM_P1;HPM_P2
2022/05/02 00:00:43;;;;;;;13.47;11.13;;;10.80;84.70;;;11.36;60.37;97761.59;5042497;28;20091;-45
2022/05/02 00:03:12;;;;;;;12.37;10.53;;;10.70;84.80;;;11.34;60.56;97763.59;5043275;28;20067;-47
2022/05/02 00:05:41;;;;;;;12.77;10.87;;;10.70;84.80;;;11.33;60.33;97752.13;5041124;28;20045;-46
2022/05/02 00:08:09;;;;;;;13.70;11.27;;;10.80;84.80;;;11.33;60.91;97748.63;5042636;28;20054;-45
2022/05/02 00:10:37;;;;;;;13.63;9.73;;;10.80;84.80;;;11.32;60.45;97755.78;5042361;28;20231;-46
2022/05/02 00:13:07;;;;;;;14.63;12.53;;;10.80;84.60;;;11.30;60.22;97744.47;5042329;28;20224;-44
2022/05/02 00:15:36;;;;;;;16.57;12.57;;;10.70;84.00;;;11.29;60.61;97748.09;5041870;28;20360;-44
2022/05/02 00:18:05;;;;;;;14.50;10.87;;;10.70;84.20;;;11.27;60.90;97742.13;5042145;28;20049;-44
2022/05/02 00:20:37;;;;;;;13.50;11.80;;;10.70;84.40;;;11.23;60.67;97746.94;5042414;28;20064;-44
2022/05/02 00:23:09;;;;;;;13.93;11.03;;;10.70;84.70;;;11.20;61.35;97735.75;5041436;28;20247;-48
2022/05/02 00:25:38;;;;;;;12.37;11.03;;;10.60;84.80;;;11.22;60.40;97739.09;5041766;28;20255;-45
2022/05/02 00:28:10;;;;;;;15.03;12.20;;;10.70;84.00;;;11.20;61.00;97735.75;5041996;28;20240;-45
2022/05/02 00:30:39;;;;;;;14.90;12.23;;;10.70;83.80;;;11.22;60.87;97741.75;5041964;28;20049;-44
2022/05/02 00:33:07;;;;;;;16.37;12.57;;;10.80;83.30;;;11.22;60.34;97742.63;5042923;28;20053;-46
2022/05/02 00:35:35;;;;;;;16.70;13.07;;;10.80;82.80;;;11.19;60.48;97740.25;5042088;28;20059;-44
2022/05/02 00:38:05;;;;;;;14.47;12.00;;;10.70;83.40;;;11.17;60.65;97741.44;5042055;28;20239;-47
2022/05/02 00:40:33;;;;;;;16.23;12.47;;;10.60;83.90;;;11.12;60.73;97733.91;5042229;28;20246;-45
2022/05/02 00:43:00;;;;;;;15.40;12.67;;;10.60;83.90;;;11.08;60.57;97737.06;5042485;28;20057;-46
2022/05/02 00:45:28;;;;;;;13.97;11.53;;;10.50;84.50;;;11.02;60.78;97733.22;5041568;28;20053;-44
2022/05/02 00:48:00;;;;;;;13.97;11.77;;;10.40;84.80;;;10.97;61.12;97736.38;5040832;28;20041;-46
2022/05/02 00:50:34;;;;;;;15.63;11.90;;;10.40;85.10;;;10.92;61.05;97733.34;5041751;28;20053;-45
2022/05/02 00:53:05;;;;;;;13.65;12.02;;;10.30;85.80;;;10.91;61.16;97737.00;5041944;28;20129;-44
2022/05/02 00:55:33;;;;;;;15.20;11.57;;;10.30;86.10;;;10.92;61.31;97738.69;5041532;28;20247;-44
2022/05/02 00:58:02;;;;;;;14.30;11.87;;;10.40;85.80;;;10.94;61.03;97731.34;5041758;28;20049;-44
2022/05/02 01:00:33;;;;;;;13.93;12.07;;;10.50;85.80;;;10.95;61.11;97724.19;5041975;28;20051;-44
2022/05/02 01:03:03;;;;;;;16.17;12.20;;;10.50;85.30;;;10.92;61.36;97721.88;5041588;28;20056;-46
2022/05/02 01:08:32;;;;;;;16.70;12.43;;;10.40;85.80;;;10.90;61.34;97718.53;5041887;28;20050;-45
2022/05/02 01:11:01;;;;;;;18.40;13.67;;;10.40;86.30;;;10.92;61.88;97713.88;5041771;28;20045;-44
2022/05/02 01:13:47;;;;;;;19.33;14.30;;;10.50;86.60;;;10.91;61.32;97715.69;5041651;28;20049;-45
2022/05/02 01:16:23;;;;;;;20.87;16.23;;;10.50;87.00;;;10.90;61.42;97722.03;5041340;28;20046;-45
2022/05/02 01:18:56;;;;;;;21.00;15.03;;;10.40;87.10;;;10.88;61.54;97718.69;5045383;28;20163;-45
2022/05/02 01:21:29;;;;;;;19.90;15.03;;;10.40;86.60;;;10.86;61.84;97711.84;5045150;28;20052;-46
2022/05/02 01:24:03;;;;;;;21.63;15.63;;;10.40;87.90;;;10.85;61.57;97711.00;5045669;28;20314;-44
2022/05/02 01:26:31;;;;;;;;;;;10.40;88.10;;;10.80;61.95;97711.50;5044973;28;20045;-44
2022/05/02 01:29:01;;;;;;;19.27;14.57;;;10.30;89.20;;;10.83;61.65;97707.69;5045288;28;19917;-46
2022/05/02 01:31:29;;;;;;;20.70;14.60;;;10.30;89.10;;;10.82;62.36;97698.84;5045209;28;20045;-45
2022/05/02 01:33:57;;;;;;;18.33;15.13;;;10.30;90.80;;;10.83;62.47;97707.69;5045799;28;20060;-47
2022/05/02 01:36:25;;;;;;;15.43;12.77;;;10.40;91.20;;;10.83;62.26;97705.00;5044503;28;20045;-46
2022/05/02 01:38:53;;;;;;;17.40;12.80;;;10.40;91.00;;;10.84;62.47;97696.03;5044233;28;20053;-47
2022/05/02 01:41:21;;;;;;;17.90;14.90;;;10.40;90.90;;;10.87;62.22;97700.19;5044962;28;20050;-45
2022/05/02 01:43:49;;;;;;;15.17;11.77;;;10.40;90.70;;;10.87;62.38;97693.03;5045121;28;20055;-44
2022/05/02 01:46:17;;;;;;;16.03;13.10;;;10.40;90.70;;;10.84;62.26;97691.53;5044185;28;20049;-44
2022/05/02 01:48:45;;;;;;;16.10;13.37;;;10.40;91.30;;;10.84;62.30;97690.72;5043803;28;20048;-45
2022/05/02 01:51:13;;;;;;;17.43;13.83;;;10.40;91.10;;;10.78;62.41;97689.53;5044780;28;20225;-46
2022/05/02 01:53:41;;;;;;;15.77;12.37;;;10.30;92.10;;;10.77;62.98;97684.34;5044826;28;20050;-47
2022/05/02 01:56:09;;;;;;;14.53;11.90;;;10.30;93.30;;;10.75;62.64;97689.00;5044769;28;20057;-44
2022/05/02 01:58:37;;;;;;;22.40;15.57;;;10.30;93.80;;;10.73;62.69;97691.00;5044518;28;20076;-44
2022/05/02 02:01:04;;;;;;;19.23;15.07;;;10.30;93.00;;;10.73;63.01;97685.69;5044754;28;20373;-46
2022/05/02 02:03:33;;;;;;;20.77;15.70;;;10.30;93.40;;;10.71;62.77;97688.50;5044659;28;20059;-44
2022/05/02 02:06:01;;;;;;;18.03;13.00;;;10.30;93.50;;;10.72;63.25;97684.00;5044662;28;20050;-43
2022/05/02 02:08:35;;;;;;;17.33;14.73;;;10.30;93.60;;;10.71;63.07;97683.16;5045643;28;20050;-46
2022/05/02 02:11:07;;;;;;;;;;;10.30;93.80;;;10.66;62.59;97679.31;5045006;28;20048;-46
2022/05/02 02:13:36;;;;;;;25.07;17.53;;;10.20;95.00;;;10.68;63.37;97680.00;5044433;28;19947;-46
2022/05/02 02:16:10;;;;;;;27.57;19.00;;;10.10;94.50;;;10.69;63.32;97685.16;5043932;28;20296;-49
2022/05/02 02:18:41;;;;;;;23.80;17.23;;;10.20;94.70;;;10.72;63.33;97674.19;5044422;28;20242;-47
2022/05/02 02:21:11;;;;;;;24.67;17.83;;;10.30;94.10;;;10.76;63.24;97677.34;5044475;28;20041;-46
2022/05/02 02:23:39;;;;;;;25.03;17.87;;;10.30;93.30;;;10.74;63.09;97677.53;5043229;28;20351;-45
2022/05/02 02:26:07;;;;;;;21.67;16.97;;;10.30;92.80;;;10.73;62.99;97681.19;5043822;28;20239;-47
2022/05/02 02:28:35;;;;;;;19.67;15.47;;;10.30;92.80;;;10.73;62.83;97683.03;5043029;28;20041;-45
2022/05/02 02:31:03;;;;;;;19.83;15.40;;;10.20;92.80;;;10.69;63.16;97682.50;5044112;28;20049;-46
2022/05/02 02:33:31;;;;;;;20.40;15.10;;;10.20;93.30;;;10.69;62.84;97676.34;5044104;28;20049;-45
2022/05/02 02:35:59;;;;;;;20.90;15.33;;;10.20;93.60;;;10.68;63.32;97674.66;5042643;28;20059;-46
2022/05/02 02:38:27;;;;;;;18.90;16.07;;;10.20;93.00;;;10.66;63.09;97674.81;5044292;28;20053;-45
2022/05/02 02:40:54;;;;;;;19.03;14.20;;;10.20;93.30;;;10.64;63.00;97672.34;5043930;28;20049;-46
2022/05/02 02:43:22;;;;;;;19.10;14.73;;;10.20;93.60;;;10.62;63.24;97668.16;5043172;28;20061;-47
2022/05/02 02:45:50;;;;;;;18.60;14.10;;;10.20;93.60;;;10.61;62.74;97670.00;5043263;28;20048;-44
2022/05/02 02:48:18;;;;;;;18.47;16.20;;;10.10;93.80;;;10.55;63.12;97680.47;5043762;28;20081;-44
2022/05/02 02:50:46;;;;;;;19.03;14.83;;;10.00;93.40;;;10.46;63.19;97674.25;5043686;28;20059;-47
2022/05/02 02:53:13;;;;;;;20.17;15.73;;;9.90;94.90;;;10.47;63.59;97667.09;5043748;28;20236;-47
2022/05/02 02:55:41;;;;;;;18.90;14.90;;;10.00;95.10;;;10.49;63.33;97665.97;5043019;28;20382;-46
2022/05/02 02:58:09;;;;;;;19.00;13.70;;;10.00;94.10;;;10.49;63.04;97667.78;5043262;28;20366;-43
2022/05/02 03:00:37;;;;;;;18.57;14.23;;;10.00;93.20;;;10.45;63.25;97659.28;5043712;28;20049;-44
2022/05/02 03:03:05;;;;;;;17.77;13.67;;;10.00;93.10;;;10.43;63.23;97659.44;5042354;28;20191;-44
2022/05/02 03:08:22;;;;;;;19.60;14.63;;;10.00;92.80;;;10.38;63.02;97653.75;5043455;28;20348;-47
2022/05/02 03:10:52;;;;;;;15.97;13.57;;;9.90;92.50;;;10.36;63.34;97654.94;5043545;28;20052;-43
2022/05/02 03:13:20;;;;;;;18.27;13.67;;;9.80;93.20;;;10.36;63.36;97652.25;5043635;28;20263;-44
2022/05/02 03:15:48;;;;;;;19.90;13.47;;;9.90;93.20;;;10.38;63.46;97659.09;5042719;28;20051;-47
2022/05/02 03:18:15;;;;;;;18.30;13.07;;;9.90;92.20;;;10.39;62.98;97644.78;5043991;28;20057;-45
2022/05/02 03:20:43;;;;;;;18.50;14.27;;;10.10;91.30;;;10.42;63.30;97648.97;5043210;28;20344;-43
2022/05/02 03:23:11;;;;;;;20.20;14.33;;;10.10;90.80;;;10.39;62.79;97639.47;5043312;28;20049;-49
2022/05/02 03:25:39;;;;;;;16.23;13.10;;;9.90;90.50;;;10.36;62.96;97641.63;5042609;28;20045;-46
2022/05/02 03:28:07;;;;;;;19.00;14.90;;;9.90;91.60;;;10.33;63.09;97649.91;5043010;28;20045;-44
2022/05/02 03:30:35;;;;;;;17.00;13.63;;;9.80;92.20;;;10.33;63.46;97642.78;5043080;28;20054;-44
2022/05/02 03:33:03;;;;;;;18.10;15.63;;;9.90;92.10;;;10.36;63.43;97641.63;5043637;28;20056;-44
2022/05/02 03:35:31;;;;;;;20.37;14.47;;;10.00;91.80;;;10.39;63.67;97638.63;5042432;28;20045;-44
2022/05/02 03:37:59;;;;;;;20.50;15.73;;;10.00;91.30;;;10.41;63.48;97637.47;5042478;28;20045;-46
2022/05/02 03:40:27;;;;;;;21.33;14.60;;;10.10;91.60;;;10.41;63.59;97637.47;5042864;28;20041;-44
2022/05/02 03:42:55;;;;;;;31.40;24.63;;;10.00;92.50;;;10.41;63.72;97636.63;5043327;28;20045;-45
2022/05/02 03:45:22;;;;;;;67.20;45.83;;;10.10;93.30;;;10.43;63.84;97638.16;5042553;28;20348;-44
2022/05/02 03:47:50;;;;;;;35.37;25.10;;;10.10;94.00;;;10.49;63.73;97646.47;5041183;28;20107;-44
2022/05/02 03:50:18;;;;;;;24.93;20.60;;;10.20;94.10;;;10.50;63.68;97646.31;5042658;28;20049;-43
2022/05/02 03:52:52;;;;;;;22.60;17.00;;;10.20;95.00;;;10.50;64.25;97638.34;5042696;28;20051;-45
2022/05/02 03:55:21;;;;;;;23.00;17.80;;;10.10;96.00;;;10.51;64.25;97634.69;5042886;28;20339;-46
2022/05/02 03:57:48;;;;;;;33.40;26.67;;;10.10;96.70;;;10.53;64.64;97632.69;5043051;28;20045;-45
2022/05/02 04:00:17;;;;;;;29.63;22.67;;;10.20;98.20;;;10.56;64.45;97637.69;5042570;28;20347;-45
2022/05/02 04:02:52;;;;;;;39.87;26.97;;;10.20;97.70;;;10.53;64.71;97638.03;5043084;28;20085;-45
2022/05/02 04:05:20;;;;;;;33.47;24.97;;;10.10;98.90;;;10.53;64.64;97631.88;5042263;28;20072;-43
2022/05/02 04:07:48;;;;;;;25.50;18.70;;;10.20;99.90;;;10.55;65.15;97646.69;5042204;28;20225;-45
2022/05/02 04:10:16;;;;;;;27.17;20.60;;;10.20;99.90;;;10.58;64.88;97645.50;5042248;28;20051;-45
2022/05/02 04:12:44;;;;;;;32.03;24.27;;;10.20;99.90;;;10.62;64.72;97645.06;5042447;28;20247;-45
2022/05/02 04:15:12;;;;;;;26.63;20.53;;;10.30;99.90;;;10.60;65.06;97644.38;5042367;28;20049;-46
2022/05/02 04:17:41;;;;;;;25.50;18.97;;;10.30;99.90;;;10.64;65.05;97647.53;5042203;28;20060;-44
2022/05/02 04:20:10;;;;;;;25.00;19.07;;;10.30;99.90;;;10.67;65.33;97647.22;5042220;28;20374;-44
2022/05/02 04:22:40;;;;;;;25.33;19.73;;;10.30;99.90;;;10.71;65.46;97653.06;5042149;28;20049;-43
2022/05/02 04:25:08;;;;;;;25.00;19.87;;;10.40;99.90;;;10.77;65.31;97649.75;5042213;28;20053;-45
2022/05/02 04:27:36;;;;;;;21.93;17.77;;;10.50;99.90;;;10.80;64.98;97641.44;5041485;28;20052;-45
2022/05/02 04:30:05;;;;;;;24.67;18.53;;;10.50;99.90;;;10.81;65.39;97649.25;5042477;28;20049;-45
2022/05/02 04:32:33;;;;;;;24.63;17.90;;;10.50;99.90;;;10.82;65.10;97640.28;5042293;28;20045;-45
2022/05/02 04:35:02;;;;;;;23.30;19.00;;;10.50;99.90;;;10.80;65.25;97634.28;5041898;28;20045;-46
2022/05/02 04:37:30;;;;;;;25.03;18.47;;;10.50;99.90;;;10.81;64.99;97635.94;5041741;28;20051;-44
2022/05/02 04:39:58;;;;;;;27.33;20.33;;;10.50;99.90;;;10.82;64.97;97634.13;5042172;28;20045;-46
2022/05/02 04:42:26;;;;;;;26.00;20.00;;;10.50;99.90;;;10.82;65.38;97629.63;5042121;28;20057;-43
2022/05/02 04:44:53;;;;;;;26.30;20.77;;;10.50;99.90;;;10.83;64.93;97638.44;5041903;28;20364;-47
2022/05/02 04:47:21;;;;;;;26.23;20.00;;;10.50;99.90;;;10.84;65.32;97630.28;5040554;28;20052;-44
2022/05/02 04:49:55;;;;;;;29.03;21.00;;;10.50;99.90;;;10.87;65.40;97630.97;5041867;28;20250;-44
2022/05/02 04:52:23;;;;;;;24.77;19.53;;;10.60;99.90;;;10.82;65.26;97640.28;5044413;28;20060;-44
2022/05/02 04:54:51;;;;;;;26.37;18.10;;;10.50;99.90;;;10.83;65.42;97628.59;5045930;28;20225;-45
2022/05/02 04:57:19;;;;;;;25.97;17.67;;;10.50;99.90;;;10.84;65.68;97638.28;5045227;28;20053;-45
2022/05/02 04:59:46;;;;;;;23.20;18.10;;;10.60;99.90;;;10.88;65.39;97640.63;5045834;28;20045;-43
2022/05/02 05:02:14;;;;;;;24.13;18.17;;;10.60;99.90;;;10.91;65.28;97634.97;5045471;28;20053;-45
2022/05/02 05:04:42;;;;;;;25.87;19.47;;;10.70;99.90;;;10.93;65.68;97632.97;5045708;28;20054;-46
2022/05/02 05:07:11;;;;;;;25.83;19.13;;;10.70;99.90;;;10.92;65.68;97641.97;5045893;28;20045;-44
2022/05/02 05:09:38;;;;;;;29.03;20.93;;;10.60;99.90;;;10.93;65.32;97639.13;5045937;28;20045;-47
2022/05/02 05:12:46;;;;;;;28.03;22.63;;;10.70;99.90;;;10.96;65.43;97644.13;5045631;28;20048;-45
2022/05/02 05:19:29;;;;;;;26.80;20.80;;;10.70;99.90;;;10.99;65.47;97630.50;5045511;28;20251;-47
2022/05/02 05:22:28;;;;;;;26.17;18.80;;;10.70;99.90;;;11.02;65.54;97632.81;5045301;28;20056;-46
2022/05/02 05:25:23;;;;;;;27.40;20.30;;;10.80;99.90;;;11.04;65.84;97628.16;5045808;28;20063;-47
2022/05/02 05:28:04;;;;;;;28.53;20.60;;;10.80;99.90;;;11.09;65.68;97634.81;5045366;28;20042;-44
2022/05/02 05:30:42;;;;;;;27.60;22.00;;;10.90;99.90;;;11.13;66.23;97638.84;5044212;28;20307;-46
2022/05/02 05:33:50;;;;;;;26.20;19.57;;;10.90;99.90;;;11.16;65.92;97636.66;5045294;28;20053;-46
2022/05/02 05:37:21;;;;;;;29.00;20.47;;;11.00;99.90;;;11.21;66.24;97645.00;5044296;28;20221;-46
2022/05/02 05:40:16;;;;;;;27.40;20.50;;;11.10;99.90;;;11.29;66.10;97641.50;5045485;28;20059;-44
2022/05/02 05:43:12;;;;;;;25.63;20.50;;;11.20;99.90;;;11.33;66.13;97645.50;5046083;28;20055;-48
2022/05/02 05:46:26;;;;;;;25.97;19.47;;;11.20;99.90;;;11.38;66.25;97640.50;5027601;28;20063;-47
2022/05/02 05:49:26;;;;;;;25.23;19.02;;;11.30;99.90;;;11.42;66.04;97641.03;5042728;28;20239;-46
2022/05/02 05:52:15;;;;;;;26.70;20.77;;;11.30;99.90;;;11.48;66.20;97647.53;5044919;28;20049;-45
2022/05/02 05:55:06;;;;;;;25.17;19.40;;;11.30;99.90;;;11.48;66.08;97643.00;5043174;28;20053;-47
2022/05/02 05:58:02;;;;;;;26.57;19.53;;;11.30;99.90;;;11.50;66.01;97637.53;5044354;28;20057;-48
2022/05/02 06:00:34;;;;;;;25.43;18.40;;;11.30;99.90;;;11.54;66.17;97638.84;5045353;28;20060;-47
2022/05/02 06:03:30;;;;;;;26.15;18.98;;;11.30;99.90;;;11.55;66.18;97645.84;5042718;28;20059;-44
2022/05/02 06:05:59;;;;;;;25.43;17.83;;;11.40;99.90;;;11.57;66.03;97642.03;5044211;28;20057;-45
2022/05/02 06:08:29;;;;;;;24.67;18.37;;;11.40;99.90;;;11.61;66.20;97640.69;5044122;28;20046;-46
2022/05/02 06:10:58;;;;;;;20.85;16.73;;;11.40;99.90;;;11.61;66.20;97645.16;5043518;28;20239;-47
2022/05/02 06:13:31;;;;;;;26.60;17.38;;;11.40;99.90;;;11.62;65.98;97644.16;5044540;28;20046;-44
2022/05/02 06:19:31;;;;;;;24.13;18.23;;;11.50;99.90;;;11.67;66.17;97647.19;5044726;28;20053;-44
2022/05/02 06:22:02;;;;;;;21.93;18.10;;;11.60;99.90;;;11.72;66.13;97646.66;5044182;28;20049;-43
2022/05/02 06:24:36;;;;;;;22.00;17.30;;;11.60;99.90;;;11.75;66.23;97646.34;5044226;28;20050;-46
2022/05/02 06:27:05;;;;;;;27.38;18.05;;;11.60;99.90;;;11.77;66.36;97642.50;5042605;28;20252;-46
2022/05/02 06:29:39;;;;;;;21.77;17.05;;;11.60;99.90;;;11.82;66.25;97648.16;5044151;28;20347;-47
2022/05/02 06:32:12;;;;;;;23.95;18.85;;;11.70;99.90;;;11.91;66.22;97649.00;5043832;28;20049;-44
2022/05/02 06:34:40;;;;;;;23.77;18.17;;;11.80;99.90;;;11.94;66.25;97646.00;5044071;28;20041;-47
2022/05/02 06:37:25;;;;;;;23.33;18.73;;;11.90;99.90;;;11.98;65.89;97650.00;5042634;28;20057;-46
2022/05/02 06:40:57;;;;;;;25.27;18.83;;;11.90;99.90;;;12.05;66.00;97650.13;5042999;28;20049;-45
2022/05/02 06:43:45;;;;;;;23.52;17.83;;;12.00;99.90;;;12.14;66.08;97648.28;5021283;28;20155;-45
2022/05/02 06:46:25;;;;;;;24.13;17.10;;;12.10;99.90;;;12.21;65.96;97644.78;5042472;28;20051;-48
2022/05/02 06:49:03;;;;;;;22.95;17.48;;;12.20;99.90;;;12.27;66.23;97640.59;5042635;28;20056;-47
2022/05/02 06:51:39;;;;;;;22.25;18.55;;;12.20;99.90;;;12.34;65.99;97646.88;5042440;28;20041;-47
2022/05/02 06:54:25;;;;;;;21.80;16.77;;;12.30;99.90;;;12.43;65.94;97646.84;5043734;28;20235;-48
2022/05/02 06:57:17;;;;;;;21.73;17.88;;;12.50;99.90;;;12.48;65.63;97648.00;5043164;28;20063;-44
2022/05/02 06:59:57;;;;;;;20.42;16.83;;;12.50;97.70;;;12.55;65.78;97642.81;5043603;28;20061;-47
2022/05/02 07:03:05;;;;;;;23.58;18.95;;;12.50;96.30;;;12.61;65.68;97642.94;5043782;28;20204;-46
2022/05/02 07:06:05;;;;;;;24.10;17.83;;;12.60;95.50;;;12.63;65.69;97645.44;5041991;28;20247;-47
2022/05/02 07:08:50;;;;;;;24.38;19.00;;;12.70;95.70;;;12.67;65.79;97644.06;5043340;28;20052;-45
2022/05/02 07:11:21;;;;;;;20.90;16.50;;;12.60;96.80;;;12.65;66.11;97647.94;5042522;28;20059;-46
2022/05/02 07:14:05;;;;;;;20.40;16.77;;;12.60;98.40;;;12.64;66.44;97641.78;5043429;28;20232;-45
2022/05/02 07:16:44;;;;;;;20.00;16.02;;;12.60;99.90;;;12.64;66.35;97646.25;5042743;28;20048;-47
2022/05/02 07:19:52;;;;;;;19.15;15.38;;;12.50;99.90;;;12.61;66.37;97644.78;5042198;28;20059;-45
2022/05/02 07:22:42;;;;;;;20.73;15.77;;;12.50;99.90;;;12.64;66.44;97649.78;5042917;28;20053;-45
2022/05/02 07:25:19;;;;;;;19.25;16.67;;;12.50;99.90;;;12.69;66.51;97651.91;5043047;28;20053;-45
2022/05/02 07:28:29;;;;;;;19.25;16.08;;;12.50;99.90;;;12.74;66.24;97653.06;5041868;28;20041;-45
2022/05/02 07:30:58;;;;;;;23.52;16.92;;;12.70;99.90;;;12.80;66.42;97655.03;5043015;28;20052;-46
2022/05/02 07:33:51;;;;;;;22.77;17.17;;;12.80;98.70;;;12.87;65.99;97660.53;5043056;28;20048;-46
2022/05/02 07:36:23;;;;;;;20.50;15.67;;;12.90;97.00;;;12.99;65.92;97651.09;5042585;28;20053;-46
2022/05/02 07:39:08;;;;;;;18.73;14.90;;;13.10;94.90;;;13.11;65.60;97650.69;5041736;28;20351;-45
2022/05/02 07:41:37;;;;;;;18.58;15.57;;;13.20;92.50;;;13.26;65.82;97656.09;5042894;28;20059;-49
2022/05/02 07:44:08;;;;;;;19.23;16.27;;;13.40;92.40;;;13.36;65.38;97659.41;5041620;28;20057;-49
2022/05/02 07:46:50;;;;;;;20.45;16.33;;;13.50;91.30;;;13.41;65.39;97659.69;5042650;28;20056;-45
2022/05/02 07:49:28;;;;;;;19.48;17.35;;;13.60;90.60;;;13.46;65.44;97649.28;5042178;28;20045;-46
2022/05/02 07:52:00;;;;;;;18.98;15.82;;;13.60;91.20;;;13.51;65.49;97644.25;5042753;28;20043;-44
2022/05/02 07:54:40;;;;;;;18.15;15.45;;;13.70;91.30;;;13.61;65.53;97646.66;5041930;28;20050;-46
2022/05/02 07:57:09;;;;;;;18.65;14.98;;;13.80;90.70;;;13.69;65.53;97648.44;5042368;28;20067;-47
2022/05/02 07:59:40;;;;;;;21.58;16.73;;;13.90;90.60;;;13.73;65.58;97647.88;5041833;28;20075;-45
2022/05/02 08:02:08;;;;;;;18.63;15.82;;;14.00;89.90;;;13.75;65.41;97648.53;5041351;28;20049;-44
2022/05/02 08:04:38;;;;;;;19.23;16.55;;;13.90;89.50;;;13.69;64.71;97651.13;5042551;28;20237;-46
2022/05/02 08:07:12;;;;;;;18.70;16.70;;;13.80;86.90;;;13.57;65.07;97646.19;5041938;28;20343;-47
2022/05/02 08:10:10;;;;;;;18.58;16.20;;;13.50;89.40;;;13.59;64.87;97649.53;5042511;28;20052;-44
2022/05/02 08:12:47;;;;;;;18.90;16.58;;;13.50;90.20;;;13.62;64.79;97642.97;5041436;28;20041;-45
2022/05/02 08:15:45;;;;;;;18.38;15.65;;;13.60;90.10;;;13.63;64.67;97654.50;5042391;28;20047;-45
2022/05/02 08:18:48;;;;;;;19.13;16.73;;;13.60;89.50;;;13.66;64.76;97648.78;5042293;28;20053;-47
2022/05/02 08:21:20;;;;;;;18.45;16.08;;;13.70;88.30;;;13.68;63.93;97652.94;5042263;28;20243;-50
2022/05/02 08:27:46;;;;;;;17.20;15.30;;;13.80;85.70;;;13.79;63.70;97652.50;5041039;28;20045;-46
2022/05/02 08:30:23;;;;;;;18.75;14.90;;;13.80;84.50;;;13.81;63.36;97643.47;5043417;28;20250;-47
2022/05/02 08:33:07;;;;;;;20.60;16.50;;;13.80;82.80;;;13.81;63.34;97646.16;5041995;28;20059;-44
2022/05/02 08:35:56;;;;;;;17.75;15.13;;;13.80;82.80;;;13.85;62.91;97647.44;5041840;28;20049;-45
2022/05/02 08:38:46;;;;;;;20.02;15.57;;;13.80;82.60;;;13.83;62.85;97642.28;5042002;28;20063;-44
2022/05/02 08:41:28;;;;;;;19.40;16.15;;;13.90;80.70;;;13.90;62.80;97637.00;5042040;28;20049;-48
2022/05/02 08:44:46;;;;;;;19.63;17.52;;;13.90;82.20;;;13.91;62.94;97636.00;5042044;28;20060;-46
2022/05/02 08:47:35;;;;;;;19.38;16.08;;;14.00;81.80;;;13.90;63.53;97642.38;5041003;28;20045;-47
2022/05/02 08:50:28;;;;;;;20.40;17.40;;;14.00;84.10;;;13.94;63.42;97635.66;5042445;28;20049;-45
2022/05/02 08:53:15;;;;;;;20.13;15.50;;;14.00;83.50;;;13.95;62.95;97632.78;5042260;28;20336;-48
2022/05/02 08:56:17;;;;;;;24.10;16.20;;;14.00;82.40;;;13.96;63.03;97629.09;5040510;28;20045;-47
2022/05/02 08:59:28;;;;;;;20.27;16.13;;;14.10;82.60;;;14.00;62.98;97640.28;5042224;28;20057;-49
2022/05/02 09:02:44;;;;;;;19.95;15.70;;;14.10;81.80;;;14.04;62.50;97635.41;5041618;28;20049;-48
2022/05/02 09:05:37;;;;;;;18.20;14.65;;;14.20;80.20;;;14.11;62.80;97637.16;5041878;28;20049;-45
2022/05/02 09:08:32;;;;;;;18.25;14.40;;;14.20;81.20;;;14.20;62.53;97634.38;5041666;28;20055;-45
2022/05/02 09:11:32;;;;;;;18.08;15.13;;;14.30;80.50;;;14.26;62.06;97630.97;5041718;28;20241;-48
2022/05/02 09:14:57;;;;;;;19.02;15.43;;;14.40;78.80;;;14.31;62.12;97634.75;5041881;28;20056;-47
2022/05/02 09:17:47;;;;;;;17.25;14.18;;;14.50;77.50;;;14.40;61.65;97642.69;5040278;28;20049;-45
2022/05/02 09:20:53;;;;;;;16.60;14.60;;;14.50;78.60;;;14.40;60.88;97627.44;5041843;28;20049;-45
2022/05/02 09:24:02;;;;;;;16.95;14.43;;;14.60;74.30;;;14.44;60.95;97636.75;5042002;28;20221;-44
2022/05/02 09:27:11;;;;;;;20.73;15.35;;;14.50;75.50;;;14.49;60.65;97630.84;5047527;28;20065;-44
2022/05/02 09:30:44;;;;;;;17.83;15.52;;;14.60;75.20;;;14.48;60.06;97634.53;5045783;28;20352;-47
2022/05/02 09:33:52;;;;;;;19.92;14.77;;;14.60;72.90;;;14.51;59.86;97635.00;5059376;28;20051;-45
2022/05/02 09:36:42;;;;;;;20.05;14.73;;;14.60;74.30;;;14.56;60.15;97629.09;5050918;28;20049;-45
2022/05/02 09:39:29;;;;;;;18.27;14.40;;;14.70;75.20;;;14.64;60.04;97630.88;5044466;28;20067;-44
2022/05/02 09:42:53;;;;;;;15.55;13.95;;;14.80;74.50;;;14.75;59.29;97630.38;5045681;28;20053;-48
2022/05/02 09:52:13;;;;;;;19.58;13.80;;;15.10;72.60;;;15.03;59.70;97617.09;5044884;28;20067;-46
2022/05/02 09:58:32;;;;;;;16.15;12.23;;;15.30;72.80;;;15.18;57.56;97608.16;5044854;28;20049;-44
2022/05/02 10:01:08;;;;;;;17.20;11.73;;;15.40;68.80;;;15.27;58.11;97610.50;5044681;28;20045;-46
2022/05/02 10:03:49;;;;;;;13.02;11.27;;;15.50;71.10;;;15.35;58.25;97605.03;5043871;28;20045;-46
2022/05/02 10:06:31;;;;;;;13.98;12.23;;;15.60;70.90;;;15.43;57.70;97598.72;5044079;28;20045;-45
2022/05/02 10:09:09;;;;;;;13.15;11.43;;;15.70;69.70;;;15.51;56.62;97603.13;5043566;28;20339;-45
2022/05/02 10:11:42;;;;;;;14.90;12.23;;;15.80;70.20;;;15.56;56.99;97590.75;5045154;28;20053;-48
2022/05/02 10:14:19;;;;;;;;;;;15.80;68.40;;;15.57;56.47;97594.28;5044849;28;20071;-46
2022/05/02 10:17:04;;;;;;;13.23;9.75;;;15.80;64.80;;;15.65;56.17;97588.78;5044378;28;19917;-46
2022/05/02 10:19:43;;;;;;;14.43;11.52;;;15.80;68.00;;;15.70;56.25;97586.34;5043401;28;20347;-49
2022/05/02 10:22:50;;;;;;;15.00;11.05;;;15.90;67.20;;;15.75;54.76;97583.09;5043556;28;20205;-45
2022/05/02 10:25:41;;;;;;;12.13;10.82;;;16.10;64.80;;;15.83;55.30;97588.31;5044226;28;20055;-47
2022/05/02 10:28:30;;;;;;;11.98;10.05;;;16.10;66.50;;;15.98;54.02;97590.06;5043315;28;20048;-45
2022/05/02 10:31:21;;;;;;;13.93;10.55;;;16.30;67.40;;;16.09;55.12;97584.13;5044211;28;20060;-47
2022/05/02 10:33:54;;;;;;;13.35;10.75;;;16.50;62.40;;;16.18;53.03;97582.13;5044141;28;20041;-47
2022/05/02 10:36:28;;;;;;;13.70;10.95;;;16.60;63.50;;;16.28;54.65;97583.41;5043667;28;20056;-46
2022/05/02 10:39:02;;;;;;;13.20;11.00;;;16.70;64.90;;;16.37;54.50;97581.38;5043924;28;20251;-47
2022/05/02 10:41:51;;;;;;;12.88;10.63;;;16.80;64.60;;;16.41;53.86;97579.13;5043997;28;20099;-45
2022/05/02 10:44:22;;;;;;;12.85;8.57;;;16.80;62.30;;;16.53;54.00;97575.66;5042918;28;20344;-47
2022/05/02 10:46:51;;;;;;;11.80;9.73;;;16.90;63.60;;;16.64;54.05;97581.50;5042169;28;20255;-47
2022/05/02 10:50:04;;;;;;;10.30;9.30;;;17.10;62.80;;;16.59;49.08;97571.34;5041632;28;20046;-46
2022/05/02 10:53:21;;;;;;;10.63;9.40;;;17.10;56.60;;;16.70;52.02;97570.75;5042491;28;20045;-47
2022/05/02 10:56:19;;;;;;;12.93;10.57;;;17.10;59.10;;;16.74;49.12;97566.63;5043001;28;20052;-46
2022/05/02 10:58:48;;;;;;;8.88;7.85;;;17.20;59.00;;;16.88;52.49;97562.16;5043434;28;20059;-47
2022/05/02 11:02:00;;;;;;;11.88;9.27;;;17.30;61.40;;;16.95;48.31;97562.19;5043548;28;20245;-44
2022/05/02 11:05:09;;;;;;;10.77;9.60;;;17.50;55.60;;;17.08;51.00;97556.81;5043578;28;20059;-47
2022/05/02 11:07:46;;;;;;;9.73;8.73;;;17.60;55.80;;;17.14;48.92;97549.81;5042120;28;20259;-47
2022/05/02 11:10:18;;;;;;;10.30;9.25;;;17.70;58.60;;;17.21;49.62;97556.00;5043158;28;20045;-45
2022/05/02 11:13:14;;;;;;;11.63;8.80;;;17.70;58.20;;;17.28;49.53;97550.63;5042345;28;20350;-47
2022/05/02 11:16:16;;;;;;;8.73;7.93;;;17.70;55.40;;;17.38;49.79;97548.34;5043507;28;20061;-49
2022/05/02 11:22:31;;;;;;;10.35;7.78;;;17.90;55.30;;;17.40;49.15;97543.59;5043219;28;20225;-46
2022/05/02 11:25:22;;;;;;;8.50;7.70;;;17.80;56.20;;;17.40;47.47;97537.38;5043083;28;20045;-44